This is the latest recevied weather packets stored in our database for station/object HA5KNF-10. If no packets are shown the sender has not sent any weather packets the latest 10 day(s).
| Time | Temp. | Humidity | Pressure | Rain* | Wind** | Luminosity | Snow |
|---|---|---|---|---|---|---|---|
| 1777201717 | 17.22° C | 33% | 1005.6 hPa | - | - | - | - |
| 1777198289 | 15.56° C | 37% | 1005.6 hPa | - | - | - | - |
| 1777194749 | 15° C | 44% | 1004.6 hPa | - | - | - | - |
| 1777191209 | 13.89° C | 44% | 1003.4 hPa | - | - | - | - |
| 1777187669 | 13.33° C | 45% | 1002.6 hPa | - | - | - | - |
| 1777184129 | 13.33° C | 45% | 1001.7 hPa | - | - | - | - |
| 1777180588 | 13.33° C | 45% | 1000.6 hPa | - | - | - | - |
| 1777177048 | 13.33° C | 45% | 999.5 hPa | - | - | - | - |
| 1777173508 | 13.33° C | 45% | 998.6 hPa | - | - | - | - |
| 1777169969 | 13.33° C | 45% | 998.7 hPa | - | - | - | - |
| 1777166428 | 13.89° C | 45% | 998 hPa | - | - | - | - |
| 1777162888 | 13.89° C | 45% | 997.7 hPa | - | - | - | - |
| 1777159348 | 14.44° C | 44% | 998 hPa | - | - | - | - |
| 1777155807 | 14.44° C | 44% | 998.4 hPa | - | - | - | - |
| 1777152267 | 15° C | 44% | 998.6 hPa | - | - | - | - |
| 1777145187 | 16.11° C | 42% | 998.5 hPa | - | - | - | - |
| 1777141647 | 16.67° C | 42% | 998.1 hPa | - | - | - | - |
| 1777138107 | 17.78° C | 41% | 997.8 hPa | - | - | - | - |
| 1777134567 | 18.33° C | 40% | 997.8 hPa | - | - | - | - |
| 1777131026 | 18.33° C | 41% | 998.2 hPa | - | - | - | - |
| 1777127486 | 18.33° C | 41% | 998.5 hPa | - | - | - | - |
| 1777123946 | 18.33° C | 41% | 998.6 hPa | - | - | - | - |
| 1777120406 | 17.22° C | 43% | 999.4 hPa | - | - | - | - |
| 1777116866 | 16.67° C | 44% | 999.7 hPa | - | - | - | - |
| 1777113326 | 15.56° C | 45% | 1000.5 hPa | - | - | - | - |
* Rain since midnight (hover to see other rain measurements)
** Current wind speed in m/s (hover to see current wind gust speed)